Time;durP1;ratioP1;P1;durP2;ratioP2;P2;SDS_P1;SDS_P2;PMS_P1;PMS_P2;Temp;Humidity;BMP_temperature;BMP_pressure;BME280_temperature;BME280_humidity;BME280_pressure;Samples;Min_cycle;Max_cycle;Signal;HPM_P1;HPM_P2
2022/03/25 00:01:42;;;;;;;8.00;5.85;;;;;;;6.75;53.68;99601.69;4111150;28;20599;-59
2022/03/25 00:03:49;;;;;;;7.30;6.60;;;;;;;6.71;53.86;99607.75;4127104;28;20201;-59
2022/03/25 00:05:52;;;;;;;6.50;6.00;;;;;;;6.67;53.75;99606.44;4109612;28;20202;-59
2022/03/25 00:07:53;;;;;;;6.97;6.22;;;;;;;6.64;53.93;99601.41;4109332;28;20599;-57
2022/03/25 00:09:55;;;;;;;6.68;5.85;;;;;;;6.62;53.62;99596.16;4127988;28;20205;-58
2022/03/25 00:11:57;;;;;;;5.93;5.43;;;;;;;6.59;53.78;99603.88;4108785;28;20226;-60
2022/03/25 00:13:59;;;;;;;6.75;5.90;;;;;;;6.57;53.68;99600.53;4109067;28;20230;-58
2022/03/25 00:16:03;;;;;;;6.38;5.43;;;;;;;6.55;53.66;99602.63;4108422;28;20273;-60
2022/03/25 00:18:05;;;;;;;6.13;5.40;;;;;;;6.49;53.89;99597.97;4125091;28;20289;-59
2022/03/25 00:20:08;;;;;;;7.95;6.05;;;;;;;6.46;53.79;99610.06;4108453;28;20222;-58
2022/03/25 00:22:10;;;;;;;8.20;6.07;;;;;;;6.44;54.03;99611.31;4108438;28;20234;-58
2022/03/25 00:24:11;;;;;;;6.78;6.03;;;;;;;6.43;54.25;99601.47;4121725;28;20241;-59
2022/03/25 00:26:13;;;;;;;7.35;5.55;;;;;;;6.45;54.12;99611.13;4105491;28;20215;-58
2022/03/25 00:28:15;;;;;;;6.90;6.30;;;;;;;6.45;53.99;99602.09;4106703;28;20211;-58
2022/03/25 00:30:17;;;;;;;6.18;4.63;;;;;;;6.45;53.78;99607.53;4121145;28;20218;-58
2022/03/25 00:32:21;;;;;;;7.82;6.97;;;;;;;6.40;53.94;99601.84;4122544;28;20231;-57
2022/03/25 00:34:23;;;;;;;6.93;6.28;;;;;;;6.29;54.06;99603.22;4124326;28;20273;-58
2022/03/25 00:36:24;;;;;;;8.07;7.28;;;;;;;6.21;54.24;99605.25;4122986;28;20252;-58
2022/03/25 00:38:27;;;;;;;7.30;5.82;;;;;;;6.18;54.41;99601.06;4092376;29;20239;-58
2022/03/25 00:40:29;;;;;;;7.07;6.40;;;;;;;6.11;54.77;99602.88;4107602;28;20222;-58
2022/03/25 00:42:31;;;;;;;7.97;6.93;;;;;;;6.09;54.73;99601.38;4103515;28;20210;-59
2022/03/25 00:44:33;;;;;;;6.43;5.28;;;;;;;6.07;54.91;99592.56;4120489;28;20707;-58
2022/03/25 00:46:35;;;;;;;7.22;6.53;;;;;;;6.00;55.04;99597.09;4121835;28;20206;-58
2022/03/25 00:48:37;;;;;;;6.82;6.25;;;;;;;5.92;55.30;99595.38;4107990;28;20217;-58
2022/03/25 00:50:39;;;;;;;9.93;6.97;;;;;;;5.87;55.37;99588.81;4119972;28;20249;-58
2022/03/25 00:52:41;;;;;;;12.32;5.47;;;;;;;5.83;55.36;99590.28;4120410;28;20215;-58
2022/03/25 00:54:43;;;;;;;6.07;5.47;;;;;;;5.83;55.03;99584.84;4124149;28;20222;-58
2022/03/25 00:56:44;;;;;;;8.55;5.22;;;;;;;5.83;55.23;99587.56;4105342;28;20253;-58
2022/03/25 00:58:46;;;;;;;8.40;6.55;;;;;;;5.83;55.14;99590.28;4106564;28;20448;-58
2022/03/25 01:00:48;;;;;;;6.47;5.93;;;;;;;5.81;55.45;99587.75;4106971;28;20215;-58
2022/03/25 01:02:50;;;;;;;7.10;6.50;;;;;;;5.75;55.50;99584.94;4121366;28;20240;-58
2022/03/25 01:04:52;;;;;;;6.97;5.75;;;;;;;5.69;55.65;99589.25;4109230;28;20322;-57
2022/03/25 01:06:53;;;;;;;8.23;6.80;;;;;;;5.65;55.53;99585.25;4104585;28;20207;-58
2022/03/25 01:08:55;;;;;;;7.82;7.13;;;;;;;5.59;55.84;99587.88;4108468;28;20312;-58
2022/03/25 01:10:57;;;;;;;7.40;5.90;;;;;;;5.51;56.13;99582.56;4108377;28;20720;-58
2022/03/25 01:12:59;;;;;;;7.78;7.07;;;;;;;5.47;55.84;99579.41;4123211;28;20202;-58
2022/03/25 01:15:02;;;;;;;7.25;5.95;;;;;;;5.50;55.94;99583.63;4109510;28;20253;-58
2022/03/25 01:17:04;;;;;;;6.00;5.40;;;;;;;5.49;55.78;99580.03;4123955;28;20710;-58
2022/03/25 01:19:10;;;;;;;7.13;6.28;;;;;;;5.52;56.03;99581.53;4127973;28;20257;-58
2022/03/25 01:21:12;;;;;;;6.00;5.40;;;;;;;5.45;56.42;99581.47;4109825;28;20226;-59
2022/03/25 01:23:14;;;;;;;6.85;6.25;;;;;;;5.46;55.94;99585.88;4111273;28;20274;-59
2022/03/25 01:25:16;;;;;;;5.93;5.43;;;;;;;5.48;56.41;99588.38;4109665;28;20237;-58
2022/03/25 01:27:19;;;;;;;7.25;6.40;;;;;;;5.42;56.55;99581.03;4124826;28;20257;-59
2022/03/25 01:29:21;;;;;;;5.72;5.22;;;;;;;5.35;56.23;99580.94;4127375;28;20291;-59
2022/03/25 01:31:23;;;;;;;6.93;4.93;;;;;;;5.31;56.64;99579.66;4107078;28;20234;-59
2022/03/25 01:33:25;;;;;;;8.48;7.53;;;;;;;5.27;56.59;99582.91;4109270;28;20897;-58
2022/03/25 01:35:26;;;;;;;6.30;5.70;;;;;;;5.24;56.64;99588.72;4110358;28;20202;-58
2022/03/25 01:37:29;;;;;;;7.57;6.30;;;;;;;5.17;56.79;99583.22;4110695;28;20202;-58
2022/03/25 01:39:31;;;;;;;10.63;6.15;;;;;;;5.13;56.63;99583.78;4123572;28;20546;-58
2022/03/25 01:41:32;;;;;;;9.07;6.72;;;;;;;5.14;56.68;99577.31;4092571;28;20242;-59
2022/03/25 01:43:34;;;;;;;8.00;7.30;;;;;;;5.16;57.06;99575.28;4093903;28;20203;-59
2022/03/25 01:45:38;;;;;;;7.15;6.50;;;;;;;5.17;56.96;99576.97;4124498;28;20202;-60
2022/03/25 01:47:42;;;;;;;8.00;7.20;;;;;;;5.12;57.30;99573.97;4111089;28;20211;-59
2022/03/25 01:49:44;;;;;;;5.63;5.13;;;;;;;5.06;57.25;99569.28;4092906;28;20231;-58
2022/03/25 01:51:50;;;;;;;7.32;6.72;;;;;;;5.01;57.05;99566.31;4105795;28;20292;-59
2022/03/25 01:53:51;;;;;;;6.55;5.88;;;;;;;4.98;56.96;99569.41;4108520;28;20223;-58
2022/03/25 01:55:58;;;;;;;7.78;7.07;;;;;;;4.97;57.57;99568.56;4106154;28;20246;-58
2022/03/25 01:58:00;;;;;;;7.03;6.30;;;;;;;4.92;57.67;99567.44;4109468;28;20222;-59
2022/03/25 02:00:03;;;;;;;7.25;6.55;;;;;;;4.84;57.67;99564.84;4106588;28;20218;-59
2022/03/25 02:02:06;;;;;;;8.77;7.22;;;;;;;4.87;57.53;99564.44;4102562;28;20234;-59
2022/03/25 02:04:08;;;;;;;8.20;7.00;;;;;;;4.85;57.52;99565.66;4104141;28;21069;-59
2022/03/25 02:06:11;;;;;;;7.15;6.40;;;;;;;4.82;57.74;99560.63;4110242;28;20557;-59
2022/03/25 02:08:13;;;;;;;9.05;6.88;;;;;;;4.83;57.95;99563.16;4127520;28;20354;-59
2022/03/25 02:10:16;;;;;;;5.40;4.75;;;;;;;4.81;57.86;99562.50;4108615;28;20616;-59
2022/03/25 02:12:18;;;;;;;7.78;5.97;;;;;;;4.83;57.32;99573.16;4093549;28;20924;-58
2022/03/25 02:14:20;;;;;;;7.47;6.78;;;;;;;4.83;57.23;99568.59;4109902;28;20235;-58
2022/03/25 02:16:46;;;;;;;7.85;7.05;;;;;;;4.80;57.82;99563.53;4124112;28;20242;-58
2022/03/25 02:18:50;;;;;;;10.35;7.65;;;;;;;4.76;57.50;99567.66;4108690;28;20238;-57
2022/03/25 02:20:51;;;;;;;7.30;6.50;;;;;;;4.74;57.29;99558.84;4122310;28;20222;-58
2022/03/25 02:22:53;;;;;;;6.80;5.70;;;;;;;4.69;57.98;99549.59;4110315;28;20319;-58
2022/03/25 02:24:55;;;;;;;7.25;6.55;;;;;;;4.62;57.63;99560.38;4123134;28;20206;-57
2022/03/25 02:26:57;;;;;;;7.43;6.75;;;;;;;4.59;57.83;99560.72;4123414;28;20222;-59
2022/03/25 02:29:00;;;;;;;7.80;6.93;;;;;;;4.55;57.93;99559.44;4120540;28;20289;-59
2022/03/25 02:31:02;;;;;;;8.25;6.55;;;;;;;4.55;57.36;99564.84;4121849;28;20257;-59
2022/03/25 02:33:07;;;;;;;11.02;7.43;;;;;;;4.53;58.03;99566.88;4106443;28;20697;-59
2022/03/25 02:35:10;;;;;;;8.13;6.85;;;;;;;4.51;58.07;99555.41;4122698;28;20312;-58
2022/03/25 02:37:14;;;;;;;7.78;6.95;;;;;;;4.49;58.09;99554.75;4122539;28;20265;-59
2022/03/25 02:39:17;;;;;;;8.10;7.30;;;;;;;4.44;58.43;99562.59;4122772;28;20242;-59
2022/03/25 02:41:19;;;;;;;10.05;6.53;;;;;;;4.43;59.18;99554.63;4101977;28;20230;-57
2022/03/25 02:43:21;;;;;;;7.78;7.05;;;;;;;4.37;58.33;99550.81;4101010;28;20663;-58
2022/03/25 02:45:22;;;;;;;9.07;6.95;;;;;;;4.31;58.98;99551.56;4118320;28;20757;-58
2022/03/25 02:47:24;;;;;;;7.47;6.43;;;;;;;4.29;58.77;99559.03;4117565;28;20214;-57
2022/03/25 02:49:26;;;;;;;12.90;7.25;;;;;;;4.29;58.37;99556.31;4110887;28;20212;-57
2022/03/25 02:51:27;;;;;;;7.28;6.13;;;;;;;4.34;58.66;99562.00;4127773;28;20237;-58
2022/03/25 02:53:29;;;;;;;8.15;6.38;;;;;;;4.32;58.61;99564.06;4121917;28;20210;-59
2022/03/25 02:55:31;;;;;;;6.63;6.00;;;;;;;4.28;59.01;99561.91;4103097;28;20230;-60
2022/03/25 02:57:33;;;;;;;8.80;6.82;;;;;;;4.25;58.67;99556.84;4103138;28;20241;-60
2022/03/25 02:59:37;;;;;;;6.35;5.80;;;;;;;4.21;59.19;99556.38;4116639;28;20276;-59
2022/03/25 03:01:38;;;;;;;10.35;6.50;;;;;;;4.17;58.81;99565.91;4119667;28;20233;-60
2022/03/25 03:03:40;;;;;;;6.50;5.97;;;;;;;4.14;58.75;99555.44;4119826;28;20212;-59
2022/03/25 03:05:42;;;;;;;5.85;5.30;;;;;;;4.14;58.97;99557.31;4117501;28;20202;-60
2022/03/25 03:07:48;;;;;;;8.07;7.25;;;;;;;4.12;59.31;99557.50;4105130;28;20669;-59
2022/03/25 03:09:50;;;;;;;6.97;6.20;;;;;;;4.10;59.40;99553.28;4121668;28;20233;-59
2022/03/25 03:11:51;;;;;;;8.68;7.70;;;;;;;4.11;59.20;99560.38;4101860;28;20254;-59
2022/03/25 03:13:53;;;;;;;9.48;5.93;;;;;;;4.08;58.93;99561.59;4106388;28;21112;-58
2022/03/25 03:15:55;;;;;;;6.72;5.72;;;;;;;4.04;59.15;99565.69;4120909;28;20230;-58
2022/03/25 03:17:57;;;;;;;8.48;7.63;;;;;;;3.99;59.36;99560.00;4104244;28;20211;-58
2022/03/25 03:20:00;;;;;;;11.50;6.63;;;;;;;3.99;58.71;99562.69;4102925;28;20273;-59
2022/03/25 03:22:02;;;;;;;7.72;6.65;;;;;;;3.94;59.23;99570.50;4101964;28;20280;-59
2022/03/25 03:24:04;;;;;;;6.82;6.22;;;;;;;3.94;58.99;99565.09;4105222;28;20245;-58
2022/03/25 03:26:09;;;;;;;8.55;6.60;;;;;;;3.94;58.67;99565.09;4103688;28;20214;-59
2022/03/25 03:28:11;;;;;;;5.95;5.45;;;;;;;3.85;59.29;99571.63;4118154;28;20276;-59
2022/03/25 03:30:12;;;;;;;7.13;6.53;;;;;;;3.81;59.69;99559.47;4104257;28;20264;-59
2022/03/25 03:32:14;;;;;;;9.20;7.35;;;;;;;3.75;59.89;99560.19;4118068;28;20222;-59
2022/03/25 03:34:16;;;;;;;7.30;6.60;;;;;;;3.70;59.58;99559.91;4118925;28;20225;-57
2022/03/25 03:36:18;;;;;;;7.97;7.20;;;;;;;3.65;59.84;99551.47;4103628;28;20273;-58
2022/03/25 03:38:20;;;;;;;10.18;6.60;;;;;;;3.61;59.79;99552.84;4118201;28;21026;-58
2022/03/25 03:40:21;;;;;;;7.43;5.63;;;;;;;3.56;60.31;99551.72;4101493;28;20245;-58
2022/03/25 03:42:23;;;;;;;8.02;6.57;;;;;;;3.53;59.80;99558.34;4102918;28;20277;-58
2022/03/25 03:44:25;;;;;;;6.22;5.18;;;;;;;3.51;59.86;99549.56;4085623;28;20270;-59
2022/03/25 03:46:26;;;;;;;7.15;6.13;;;;;;;3.51;59.96;99554.13;4117523;28;20679;-60
2022/03/25 03:48:28;;;;;;;7.63;7.05;;;;;;;3.54;60.01;99551.06;4106105;28;20209;-59
2022/03/25 03:50:30;;;;;;;5.60;4.65;;;;;;;3.52;60.20;99553.94;4102517;28;20238;-59
2022/03/25 03:52:35;;;;;;;16.05;5.85;;;;;;;3.46;60.64;99560.06;4089662;28;20216;-60
2022/03/25 03:54:38;;;;;;;5.03;4.63;;;;;;;3.45;60.47;99547.56;4108179;28;20254;-59
2022/03/25 03:56:39;;;;;;;8.57;6.22;;;;;;;3.39;60.21;99553.69;4123759;28;20206;-59
2022/03/25 03:58:41;;;;;;;6.82;6.13;;;;;;;3.37;60.52;99561.16;4123917;28;20194;-59
2022/03/25 04:00:43;;;;;;;7.60;6.32;;;;;;;3.35;60.40;99548.84;4109825;28;20696;-59
2022/03/25 04:02:45;;;;;;;7.45;6.75;;;;;;;3.34;60.04;99553.38;4092535;28;20207;-59
2022/03/25 04:04:47;;;;;;;7.45;6.85;;;;;;;3.32;60.55;99557.28;4125220;28;20643;-59
2022/03/25 04:06:49;;;;;;;7.22;5.88;;;;;;;3.29;60.26;99555.81;4124015;28;20294;-59
2022/03/25 04:08:50;;;;;;;7.18;6.57;;;;;;;3.28;60.30;99561.38;4124465;28;20330;-59
2022/03/25 04:10:52;;;;;;;5.82;5.30;;;;;;;3.24;60.51;99554.63;4123792;28;20237;-60
2022/03/25 04:12:54;;;;;;;7.80;5.60;;;;;;;3.20;60.96;99562.28;4124860;28;20233;-60
2022/03/25 04:14:56;;;;;;;7.40;6.70;;;;;;;3.15;60.32;99567.34;4119893;28;20705;-59
2022/03/25 04:16:58;;;;;;;6.78;5.20;;;;;;;3.09;60.70;99560.00;4126032;28;20280;-58
2022/03/25 04:18:59;;;;;;;6.00;5.47;;;;;;;3.08;60.50;99558.28;4108318;28;20231;-58
2022/03/25 04:21:01;;;;;;;6.07;5.55;;;;;;;3.04;60.44;99565.06;4124367;28;20229;-59
2022/03/25 04:23:03;;;;;;;5.45;4.88;;;;;;;3.04;60.41;99562.38;4122566;28;20221;-58
2022/03/25 04:25:07;;;;;;;7.95;7.15;;;;;;;3.01;60.88;99562.72;4106897;28;20210;-59
2022/03/25 04:27:10;;;;;;;6.65;5.18;;;;;;;3.00;60.89;99566.44;4123237;28;20678;-59
2022/03/25 04:29:12;;;;;;;7.03;6.43;;;;;;;3.02;60.98;99567.09;4125067;28;20206;-58
2022/03/25 04:31:13;;;;;;;6.30;5.38;;;;;;;2.97;61.01;99564.09;4123119;28;20264;-59
2022/03/25 04:33:15;;;;;;;7.50;6.80;;;;;;;2.94;60.75;99569.84;4125292;28;20249;-59
2022/03/25 04:35:18;;;;;;;6.63;6.03;;;;;;;2.91;61.54;99563.94;4124031;28;21058;-59
2022/03/25 04:37:19;;;;;;;7.00;6.50;;;;;;;2.85;61.67;99562.78;4123603;28;20222;-59
2022/03/25 04:39:21;;;;;;;6.60;5.85;;;;;;;2.78;60.90;99563.66;4126635;28;20257;-58
2022/03/25 04:41:23;;;;;;;5.80;4.85;;;;;;;2.76;61.20;99560.31;4123420;28;20307;-59
2022/03/25 04:43:25;;;;;;;7.63;5.80;;;;;;;2.76;61.33;99563.88;4119562;28;20238;-59
2022/03/25 04:45:28;;;;;;;5.95;5.40;;;;;;;2.75;61.60;99570.25;4108247;28;20330;-59
2022/03/25 04:47:30;;;;;;;6.90;6.22;;;;;;;2.66;61.79;99565.09;4124548;28;20661;-58
2022/03/25 04:49:31;;;;;;;11.38;6.15;;;;;;;2.71;61.37;99568.94;4123575;28;20260;-59
2022/03/25 04:51:33;;;;;;;6.18;5.25;;;;;;;2.69;61.59;99559.31;4108544;28;20234;-59
2022/03/25 04:53:35;;;;;;;6.18;5.60;;;;;;;2.68;62.12;99565.75;4110493;28;20235;-59
2022/03/25 04:55:37;;;;;;;6.72;5.10;;;;;;;2.69;61.28;99565.56;4124832;28;20225;-59
2022/03/25 04:57:39;;;;;;;6.78;6.15;;;;;;;2.68;61.63;99566.56;4126562;28;20671;-58
2022/03/25 04:59:41;;;;;;;7.15;6.47;;;;;;;2.69;61.42;99565.56;4111164;28;20290;-59
2022/03/25 05:01:43;;;;;;;6.05;5.28;;;;;;;2.66;61.56;99559.69;4128598;28;20766;-59
2022/03/25 05:03:45;;;;;;;6.38;5.78;;;;;;;2.65;61.39;99575.03;4126449;28;20206;-59
2022/03/25 05:05:47;;;;;;;7.80;7.10;;;;;;;2.64;61.93;99573.34;4095550;28;20274;-59
2022/03/25 05:07:50;;;;;;;6.22;5.65;;;;;;;2.66;61.22;99565.91;4093783;28;20660;-59
2022/03/25 05:09:52;;;;;;;6.38;5.78;;;;;;;2.59;62.07;99573.03;4127071;28;20660;-59
2022/03/25 05:11:54;;;;;;;7.32;6.72;;;;;;;2.58;61.87;99568.66;4107535;28;20265;-59
2022/03/25 05:13:56;;;;;;;6.28;5.60;;;;;;;2.53;61.76;99573.72;4112263;28;20550;-59
2022/03/25 05:15:58;;;;;;;6.28;5.45;;;;;;;2.50;61.38;99571.38;4109948;28;20632;-59
2022/03/25 05:17:59;;;;;;;6.22;5.63;;;;;;;2.46;61.87;99575.44;4126236;28;20214;-59
2022/03/25 05:20:05;;;;;;;7.72;6.95;;;;;;;2.42;62.12;99579.47;4110247;28;20360;-59
2022/03/25 05:22:07;;;;;;;7.35;6.75;;;;;;;2.43;61.89;99583.91;4127759;28;20256;-59
2022/03/25 05:24:09;;;;;;;8.32;7.55;;;;;;;2.43;62.03;99586.59;4123827;28;20206;-59
2022/03/25 05:26:11;;;;;;;6.80;5.97;;;;;;;2.43;62.38;99580.34;4124560;28;20237;-59
2022/03/25 05:28:15;;;;;;;20.27;7.43;;;;;;;2.43;62.13;99592.00;4121396;28;20205;-59
2022/03/25 05:30:22;;;;;;;8.07;7.28;;;;;;;2.37;62.23;99584.56;4110493;28;20249;-59
2022/03/25 05:32:24;;;;;;;7.55;6.72;;;;;;;2.39;62.23;99585.25;4109098;28;20285;-59
2022/03/25 05:34:26;;;;;;;7.45;6.00;;;;;;;2.35;62.60;99583.88;4106557;28;20377;-60
2022/03/25 05:36:28;;;;;;;6.72;5.90;;;;;;;2.39;62.55;99587.94;4124010;28;21274;-59
2022/03/25 05:38:30;;;;;;;6.55;5.93;;;;;;;2.31;62.03;99587.97;4107827;28;20207;-59
2022/03/25 05:40:32;;;;;;;6.72;6.13;;;;;;;2.34;62.11;99589.47;4123066;28;20218;-59
2022/03/25 05:42:34;;;;;;;6.32;5.68;;;;;;;2.36;62.28;99591.00;4106436;28;20199;-59
2022/03/25 05:44:36;;;;;;;8.68;7.03;;;;;;;2.35;62.40;99588.47;4110838;28;20440;-59
2022/03/25 05:46:38;;;;;;;8.38;6.50;;;;;;;2.34;62.68;99602.97;4123834;28;20210;-59
2022/03/25 05:48:40;;;;;;;8.32;7.53;;;;;;;2.33;62.44;99606.69;4125339;28;20256;-60
2022/03/25 05:50:42;;;;;;;7.05;5.63;;;;;;;2.29;62.75;99606.19;4112280;28;20211;-59
2022/03/25 05:52:44;;;;;;;8.35;7.07;;;;;;;2.25;62.92;99604.84;4111869;28;20199;-59
2022/03/25 05:54:46;;;;;;;13.25;7.75;;;;;;;2.36;62.74;99614.44;4110790;28;20202;-58
2022/03/25 05:56:48;;;;;;;8.23;7.53;;;;;;;2.40;62.42;99610.41;4112019;28;20211;-57
2022/03/25 05:58:50;;;;;;;8.07;6.47;;;;;;;2.25;62.87;99620.19;4110783;28;20265;-55
2022/03/25 06:00:52;;;;;;;13.15;6.85;;;;;;;2.30;62.92;99610.59;4112687;28;20692;-54
2022/03/25 06:02:54;;;;;;;8.43;7.60;;;;;;;2.35;62.96;99619.00;4112949;28;20245;-53
2022/03/25 06:04:56;;;;;;;6.93;6.32;;;;;;;2.41;63.35;99612.91;4114932;28;20213;-53
2022/03/25 06:06:58;;;;;;;7.50;6.80;;;;;;;2.44;63.49;99615.28;4111780;28;20214;-53
2022/03/25 06:08:59;;;;;;;8.35;6.95;;;;;;;2.53;63.21;99621.50;4129642;28;20217;-52
2022/03/25 06:11:01;;;;;;;6.97;6.40;;;;;;;2.59;63.15;99620.78;4112494;28;20242;-54
2022/03/25 06:13:06;;;;;;;7.78;7.15;;;;;;;2.67;63.79;99623.50;4128200;28;20214;-53
2022/03/25 06:15:09;;;;;;;9.50;7.55;;;;;;;2.76;63.14;99626.00;4112233;28;20213;-53
2022/03/25 06:17:11;;;;;;;13.23;7.88;;;;;;;2.82;63.20;99630.69;4127178;28;20206;-54
2022/03/25 06:19:13;;;;;;;8.57;7.43;;;;;;;2.92;63.51;99630.50;4109435;28;20253;-53
2022/03/25 06:21:16;;;;;;;6.65;6.05;;;;;;;3.12;64.30;99621.81;4118574;28;20281;-54
2022/03/25 06:23:18;;;;;;;7.32;6.63;;;;;;;3.28;64.12;99627.13;4109730;28;20280;-54
2022/03/25 06:25:20;;;;;;;8.60;7.53;;;;;;;3.30;63.31;99627.81;4123215;28;20260;-53
2022/03/25 06:27:22;;;;;;;12.38;7.50;;;;;;;3.41;63.23;99629.28;4109617;28;20695;-53
2022/03/25 06:29:24;;;;;;;7.63;7.03;;;;;;;3.47;63.31;99625.84;4124221;28;20214;-53
2022/03/25 06:31:29;;;;;;;8.80;7.43;;;;;;;3.63;63.04;99634.72;4107711;28;20223;-53
2022/03/25 06:33:31;;;;;;;9.27;8.35;;;;;;;4.05;62.50;99636.94;4124178;28;20229;-53
2022/03/25 06:35:33;;;;;;;7.75;7.00;;;;;;;4.05;61.67;99637.78;4124312;28;20241;-54
2022/03/25 06:37:38;;;;;;;9.90;8.25;;;;;;;4.08;61.90;99639.28;4106781;28;20377;-53
2022/03/25 06:39:39;;;;;;;8.10;6.65;;;;;;;4.39;61.73;99640.88;4123202;28;20230;-54
2022/03/25 06:41:42;;;;;;;9.20;6.13;;;;;;;5.11;60.61;99642.81;4105567;28;20264;-52
2022/03/25 06:43:43;;;;;;;8.25;7.45;;;;;;;5.14;59.53;99632.44;4108967;28;20254;-52
2022/03/25 06:45:45;;;;;;;8.15;7.43;;;;;;;5.28;59.96;99633.44;4109364;28;20226;-53
2022/03/25 06:47:47;;;;;;;8.38;6.18;;;;;;;5.47;59.62;99638.25;4123794;28;20214;-52
2022/03/25 06:49:49;;;;;;;12.27;9.38;;;;;;;5.80;58.17;99644.97;4122691;28;20252;-52
2022/03/25 06:51:51;;;;;;;8.80;7.40;;;;;;;5.92;58.76;99649.72;4105597;28;21055;-52
2022/03/25 06:53:53;;;;;;;8.13;7.32;;;;;;;6.20;57.76;99652.47;4124645;28;20318;-52
2022/03/25 06:55:55;;;;;;;9.82;8.93;;;;;;;7.09;57.15;99644.41;4110913;28;20223;-52
2022/03/25 06:57:57;;;;;;;7.78;6.97;;;;;;;7.06;57.53;99648.38;4126480;28;20237;-52
2022/03/25 06:59:59;;;;;;;7.07;6.38;;;;;;;7.21;56.38;99648.25;4125208;28;20229;-52
2022/03/25 07:02:01;;;;;;;8.30;7.22;;;;;;;7.39;56.22;99641.22;4127885;28;20317;-52
2022/03/25 07:04:03;;;;;;;10.77;7.22;;;;;;;8.94;54.59;99644.47;4110654;28;20584;-52
2022/03/25 07:06:05;;;;;;;6.80;6.18;;;;;;;8.45;54.17;99641.31;4107833;28;20612;-52
2022/03/25 07:08:09;;;;;;;8.57;7.78;;;;;;;8.81;54.50;99644.47;4126337;28;20214;-52
2022/03/25 07:10:15;;;;;;;16.08;7.90;;;;;;;9.85;51.75;99641.41;4107879;28;20211;-52
2022/03/25 07:12:17;;;;;;;8.00;6.47;;;;;;;9.71;51.17;99642.53;4126266;28;20587;-52
2022/03/25 07:14:19;;;;;;;8.98;8.18;;;;;;;10.28;49.95;99645.22;4127447;28;20202;-52
2022/03/25 07:16:21;;;;;;;7.50;6.80;;;;;;;10.14;50.44;99649.09;4107452;28;20346;-52
2022/03/25 07:18:23;;;;;;;8.68;7.72;;;;;;;9.54;50.94;99642.19;4091702;28;20712;-52
2022/03/25 07:20:26;;;;;;;17.20;7.68;;;;;;;10.25;50.13;99642.91;4107857;28;20202;-52
2022/03/25 07:22:29;;;;;;;11.65;8.10;;;;;;;10.78;49.06;99645.84;4106901;28;20262;-52
2022/03/25 07:24:30;;;;;;;7.68;6.97;;;;;;;11.73;46.68;99640.69;4123204;28;20229;-53
2022/03/25 07:26:32;;;;;;;7.85;7.05;;;;;;;12.28;45.03;99642.25;4124650;28;20724;-52
2022/03/25 07:28:34;;;;;;;9.02;7.95;;;;;;;12.92;44.08;99649.66;4119575;28;20590;-54
2022/03/25 07:30:37;;;;;;;12.80;10.20;;;;;;;12.39;46.48;99649.69;4104095;28;20808;-52
2022/03/25 07:32:39;;;;;;;9.38;8.10;;;;;;;12.26;45.74;99649.88;4124869;28;20727;-52
2022/03/25 07:34:40;;;;;;;9.43;8.52;;;;;;;12.86;44.74;99651.47;4125993;28;20247;-54
2022/03/25 07:36:42;;;;;;;11.93;7.90;;;;;;;12.02;44.43;99655.47;4123196;28;20276;-53
2022/03/25 07:38:44;;;;;;;11.10;10.05;;;;;;;11.32;45.79;99656.09;4107049;28;20222;-54
2022/03/25 07:40:46;;;;;;;10.10;9.10;;;;;;;11.54;45.70;99644.47;4113029;28;20207;-52
2022/03/25 07:42:52;;;;;;;13.70;9.15;;;;;;;12.00;44.44;99650.25;4109301;28;20207;-53
2022/03/25 07:44:54;;;;;;;8.50;7.47;;;;;;;12.80;44.20;99657.91;4112060;28;20238;-53
2022/03/25 07:46:56;;;;;;;11.52;10.25;;;;;;;11.77;45.25;99661.06;4127715;28;20202;-51
2022/03/25 07:48:58;;;;;;;9.27;8.32;;;;;;;11.53;45.59;99656.50;4113567;28;20203;-52
2022/03/25 07:51:00;;;;;;;10.38;9.30;;;;;;;11.81;45.46;99662.31;4112852;28;20260;-54
2022/03/25 07:53:01;;;;;;;10.10;9.10;;;;;;;11.87;45.21;99655.91;4127892;28;20304;-58
2022/03/25 07:55:05;;;;;;;9.45;8.07;;;;;;;12.34;45.36;99662.41;4111853;28;20665;-51
2022/03/25 07:57:06;;;;;;;11.10;9.52;;;;;;;13.94;42.21;99656.19;4113221;28;20309;-56
2022/03/25 07:59:08;;;;;;;11.98;8.70;;;;;;;12.84;44.18;99659.06;4128834;28;20209;-51
2022/03/25 08:01:14;;;;;;;11.25;10.20;;;;;;;12.75;44.23;99660.50;4124339;28;20226;-51
2022/03/25 08:03:16;;;;;;;12.25;10.55;;;;;;;12.03;44.56;99657.19;4108703;28;20281;-51
2022/03/25 08:05:20;;;;;;;11.75;10.40;;;;;;;12.61;45.04;99669.19;4095544;28;20669;-51
2022/03/25 08:07:21;;;;;;;10.70;9.20;;;;;;;13.00;44.17;99654.84;4110919;28;20320;-51
2022/03/25 08:09:23;;;;;;;12.82;9.88;;;;;;;12.42;44.40;99659.34;4109266;28;20219;-51
2022/03/25 08:11:25;;;;;;;11.00;9.70;;;;;;;13.88;42.54;99659.91;4123958;28;20233;-53
2022/03/25 08:13:27;;;;;;;13.52;9.50;;;;;;;13.63;42.53;99658.53;4110072;28;20697;-51
2022/03/25 08:15:30;;;;;;;16.05;13.20;;;;;;;12.88;43.82;99657.53;4113743;28;20586;-53
2022/03/25 08:17:57;;;;;;;11.70;10.50;;;;;;;12.72;43.90;99658.25;4108854;28;20211;-52
2022/03/25 08:19:58;;;;;;;11.10;10.10;;;;;;;12.89;44.69;99653.72;4125439;28;20545;-51
2022/03/25 08:22:00;;;;;;;10.27;9.18;;;;;;;13.70;43.09;99660.06;4121890;28;20662;-51
2022/03/25 08:28:42;;;;;;;17.98;11.77;;;;;;;14.25;41.18;99658.50;4104119;28;21170;-52
2022/03/25 08:31:04;;;;;;;11.50;9.98;;;;;;;15.26;40.75;99659.19;4107429;28;20766;-52
2022/03/25 08:33:06;;;;;;;10.57;8.77;;;;;;;15.70;39.97;99663.72;4112167;28;20848;-51
2022/03/25 08:35:09;;;;;;;11.93;10.63;;;;;;;16.36;39.09;99655.16;4128040;28;20375;-52
2022/03/25 08:37:11;;;;;;;11.45;9.60;;;;;;;15.67;39.58;99660.63;4130148;28;20229;-51
2022/03/25 08:39:13;;;;;;;11.05;9.95;;;;;;;15.45;39.74;99665.28;4129249;28;20600;-54
2022/03/25 08:41:15;;;;;;;10.50;9.40;;;;;;;14.87;39.76;99668.47;4125293;28;20222;-53
2022/03/25 08:43:17;;;;;;;11.60;10.40;;;;;;;15.36;39.87;99673.16;4106805;28;20862;-51
2022/03/25 08:45:19;;;;;;;10.90;9.90;;;;;;;15.96;39.15;99654.69;4109574;28;20209;-55
2022/03/25 08:47:21;;;;;;;10.75;9.45;;;;;;;16.08;38.35;99660.06;4111871;28;20288;-50
2022/03/25 08:49:23;;;;;;;11.23;9.82;;;;;;;15.94;38.49;99654.13;4109659;28;20211;-50
2022/03/25 08:51:25;;;;;;;14.80;10.05;;;;;;;15.93;38.38;99657.13;4108555;28;20230;-51
2022/03/25 08:53:27;;;;;;;16.60;10.93;;;;;;;15.67;39.17;99664.25;4113393;28;20211;-50
2022/03/25 08:55:36;;;;;;;12.25;9.98;;;;;;;15.55;38.38;99658.00;4123788;28;20206;-53
2022/03/25 08:57:38;;;;;;;12.25;11.02;;;;;;;16.61;37.47;99661.00;4123847;28;20244;-51
2022/03/25 08:59:51;;;;;;;11.90;8.88;;;;;;;17.11;37.12;99650.41;4130625;28;20206;-53
2022/03/25 09:02:00;;;;;;;10.80;8.82;;;;;;;16.90;37.13;99653.25;4113492;28;20237;-50
2022/03/25 09:04:20;;;;;;;13.48;11.63;;;;;;;17.11;36.48;99658.72;4112665;28;20673;-52
2022/03/25 09:06:22;;;;;;;12.13;9.82;;;;;;;17.36;36.16;99658.88;4127654;28;20712;-51
2022/03/25 09:08:24;;;;;;;14.57;10.02;;;;;;;17.43;35.69;99653.97;4125451;28;20213;-51
2022/03/25 09:10:26;;;;;;;13.93;11.27;;;;;;;17.94;36.37;99656.81;4110391;28;20238;-50
2022/03/25 09:12:28;;;;;;;10.85;9.40;;;;;;;16.92;37.67;99660.22;4126388;28;20730;-50
2022/03/25 09:14:30;;;;;;;15.77;11.02;;;;;;;17.18;37.34;99648.25;4112235;28;20207;-51
2022/03/25 09:16:32;;;;;;;13.15;10.88;;;;;;;17.12;37.51;99646.53;4128672;28;20218;-50
2022/03/25 09:18:34;;;;;;;12.25;10.80;;;;;;;17.96;36.49;99648.19;4111492;28;20218;-51
2022/03/25 09:20:39;;;;;;;15.20;11.07;;;;;;;18.15;36.18;99649.41;4094224;28;20219;-51
2022/03/25 09:22:42;;;;;;;13.48;10.15;;;;;;;18.05;36.13;99647.41;4109214;28;20578;-50
2022/03/25 09:24:44;;;;;;;10.50;9.48;;;;;;;18.19;36.56;99653.31;4113502;28;20257;-50
2022/03/25 09:26:46;;;;;;;12.63;11.32;;;;;;;17.08;37.52;99650.94;4126467;28;20199;-51
2022/03/25 09:28:51;;;;;;;12.98;11.40;;;;;;;18.19;36.23;99653.31;4114272;28;20213;-50
2022/03/25 09:30:53;;;;;;;11.55;9.65;;;;;;;18.44;34.78;99650.66;4128174;28;20238;-49
2022/03/25 09:32:54;;;;;;;13.45;11.88;;;;;;;17.91;36.00;99648.19;4123531;28;20214;-50
2022/03/25 09:35:16;;;;;;;12.20;9.93;;;;;;;18.40;35.70;99655.91;4111019;28;20669;-51
2022/03/25 09:37:41;;;;;;;12.82;10.30;;;;;;;17.89;36.69;99650.38;4123850;28;20234;-51
2022/03/25 09:39:44;;;;;;;14.30;10.10;;;;;;;18.09;36.48;99656.00;4123337;28;20261;-49
2022/03/25 09:41:47;;;;;;;10.75;9.30;;;;;;;18.67;35.64;99659.31;4110000;28;20234;-49
2022/03/25 09:43:49;;;;;;;16.35;10.00;;;;;;;19.02;35.43;99655.72;4112744;28;20237;-49
2022/03/25 09:45:51;;;;;;;11.07;9.98;;;;;;;17.89;35.24;99647.63;4108106;28;20302;-50